Time;durP1;ratioP1;P1;durP2;ratioP2;P2;SDS_P1;SDS_P2;PMS_P1;PMS_P2;Temp;Humidity;BMP_temperature;BMP_pressure;BME280_temperature;BME280_humidity;BME280_pressure;Samples;Min_cycle;Max_cycle;Signal;HPM_P1;HPM_P2
2023/09/17 00:02:06;;;;;;;;;17.00;17.00;;;;;19.46;59.83;101495.72;5028374;28;8976;-68
2023/09/17 00:04:33;;;;;;;;;23.00;22.33;;;;;19.41;59.63;101494.78;5015573;28;9017;-68
2023/09/17 00:07:00;;;;;;;;;15.33;13.67;;;;;19.34;59.88;101481.25;5029715;28;9169;-68
2023/09/17 00:09:29;;;;;;;;;16.00;16.00;;;;;19.39;59.73;101486.00;5030567;28;8896;-68
2023/09/17 00:11:56;;;;;;;;;20.00;19.33;;;;;19.34;59.33;101483.97;5031103;28;8828;-69
2023/09/17 00:14:23;;;;;;;;;26.00;24.33;;;;;19.23;59.24;101484.78;5026845;28;9165;-69
2023/09/17 00:16:49;;;;;;;;;25.67;24.33;;;;;19.13;59.40;101470.91;4996736;28;9152;-69
2023/09/17 00:19:16;;;;;;;;;25.67;21.33;;;;;19.11;59.54;101471.13;5031194;28;9218;-69
2023/09/17 00:21:43;;;;;;;;;23.00;22.00;;;;;19.12;59.71;101467.38;5031001;28;8901;-69
2023/09/17 00:24:09;;;;;;;;;20.00;18.75;;;;;19.16;59.95;101474.00;5028007;28;9045;-68
2023/09/17 00:26:36;;;;;;;;;23.00;21.67;;;;;19.17;59.75;101477.56;5023953;28;8797;-69
2023/09/17 00:29:02;;;;;;;;;14.00;12.67;;;;;19.18;60.15;101471.03;5029799;28;8921;-69
2023/09/17 00:31:29;;;;;;;;;17.33;17.33;;;;;19.23;60.31;101468.41;5030658;28;8941;-70
2023/09/17 00:33:56;;;;;;;;;17.67;17.33;;;;;19.29;60.14;101472.94;5030992;28;9065;-69
2023/09/17 00:36:23;;;;;;;;;23.00;21.00;;;;;19.26;60.06;101468.78;5028876;28;8986;-69
2023/09/17 00:38:51;;;;;;;;;22.67;19.00;;;;;19.23;60.03;101463.78;5030322;28;8953;-70
2023/09/17 00:41:17;;;;;;;;;20.33;20.33;;;;;19.25;60.43;101469.03;5022770;28;8894;-69
2023/09/17 00:43:43;;;;;;;;;22.00;20.67;;;;;19.24;60.16;101473.66;5014021;28;8931;-70
2023/09/17 00:46:13;;;;;;;;;19.67;19.67;;;;;19.15;60.57;101466.88;5027137;28;8997;-69
2023/09/17 00:48:41;;;;;;;;;18.33;18.33;;;;;19.17;60.86;101467.47;5012495;28;8917;-69
2023/09/17 00:51:08;;;;;;;;;19.33;19.00;;;;;19.15;60.93;101455.94;5012444;28;9043;-70
2023/09/17 00:53:36;;;;;;;;;15.33;15.33;;;;;19.16;60.85;101462.22;5011606;28;9000;-69
2023/09/17 00:56:03;;;;;;;;;21.00;21.00;;;;;19.18;60.83;101460.94;5028695;28;8925;-68
2023/09/17 00:58:33;;;;;;;;;22.67;22.33;;;;;19.20;61.20;101463.44;5011298;28;9156;-69
2023/09/17 01:01:00;;;;;;;;;21.33;19.33;;;;;19.20;60.99;101460.69;5021675;28;9707;-69
2023/09/17 01:03:27;;;;;;;;;17.67;17.00;;;;;19.21;60.92;101455.03;5027432;28;9017;-69
2023/09/17 01:05:56;;;;;;;;;25.00;25.00;;;;;19.23;60.98;101452.03;5027010;28;8946;-68
2023/09/17 01:08:24;;;;;;;;;24.33;22.00;;;;;19.18;60.70;101452.75;5030184;28;9081;-68
2023/09/17 01:10:55;;;;;;;;;26.33;23.33;;;;;19.09;61.04;101443.25;5030009;28;9222;-69
2023/09/17 01:13:23;;;;;;;;;25.33;24.33;;;;;19.01;60.87;101443.63;5029896;28;9994;-69
2023/09/17 01:15:51;;;;;;;;;20.33;20.00;;;;;19.01;61.49;101438.16;5026991;28;9397;-69
2023/09/17 01:18:22;;;;;;;;;20.33;20.33;;;;;19.02;61.64;101437.09;5009800;28;8990;-69
2023/09/17 01:21:00;;;;;;;;;24.67;24.67;;;;;19.04;61.66;101432.25;5027400;28;9171;-68
2023/09/17 01:23:36;;;;;;;;;23.33;21.33;;;;;19.05;61.82;101431.16;5029469;28;8989;-69
2023/09/17 01:26:26;;;;;;;;;24.00;23.33;;;;;18.99;62.05;101426.63;5019288;28;9067;-70
2023/09/17 01:28:56;;;;;;;;;25.33;23.00;;;;;18.95;62.44;101425.44;5027136;28;9335;-69
2023/09/17 01:31:23;;;;;;;;;26.00;24.33;;;;;18.99;62.64;101435.66;5008532;28;9180;-69
2023/09/17 01:33:51;;;;;;;;;23.00;20.00;;;;;19.01;62.22;101421.78;5028979;28;9169;-69
2023/09/17 01:36:33;;;;;;;;;24.00;22.00;;;;;18.90;62.07;101428.88;5028740;28;9084;-69
2023/09/17 01:39:04;;;;;;;;;25.67;23.00;;;;;18.89;62.45;101423.66;5011868;28;9092;-69
2023/09/17 01:41:36;;;;;;;;;26.00;25.00;;;;;18.85;62.25;101422.47;5008444;28;9229;-69
2023/09/17 01:44:06;;;;;;;;;27.00;24.00;;;;;18.89;62.58;101423.66;5012167;28;9068;-69
2023/09/17 01:46:35;;;;;;;;;23.00;20.67;;;;;18.91;63.14;101426.97;5029545;28;9785;-69
2023/09/17 01:49:03;;;;;;;;;15.50;13.50;;;;;18.95;63.30;101425.44;5027800;28;8993;-69
2023/09/17 01:51:31;;;;;;;;;24.00;22.67;;;;;18.92;63.45;101417.72;5027755;28;9059;-69
2023/09/17 01:53:58;;;;;;;;;22.67;22.67;;;;;18.86;64.13;101413.22;5015177;28;9162;-70
2023/09/17 01:56:25;;;;;;;;;29.67;23.00;;;;;18.82;63.81;101406.56;5033638;28;9262;-69
2023/09/17 01:58:51;;;;;;;;;22.33;21.33;;;;;18.81;63.89;101407.66;5031291;28;10537;-70
2023/09/17 02:01:18;;;;;;;;;22.33;20.00;;;;;18.87;64.16;101404.78;5014771;28;9104;-69
2023/09/17 02:03:44;;;;;;;;;24.33;21.00;;;;;18.90;64.06;101401.59;5022411;28;9044;-69
2023/09/17 02:06:11;;;;;;;;;20.67;20.00;;;;;18.89;64.49;101394.50;5014909;28;8980;-69
2023/09/17 02:08:38;;;;;;;;;28.67;24.67;;;;;18.85;64.09;101404.22;5014911;28;9074;-70
2023/09/17 02:11:06;;;;;;;;;21.33;21.33;;;;;18.85;64.54;101397.94;5017825;28;9055;-68
2023/09/17 02:13:33;;;;;;;;;17.33;17.00;;;;;18.88;64.28;101398.28;5030213;28;9056;-68
2023/09/17 02:15:59;;;;;;;;;22.67;22.00;;;;;18.91;64.24;101402.44;5015207;28;8976;-69
2023/09/17 02:18:26;;;;;;;;;21.00;17.50;;;;;18.97;63.98;101404.22;5028366;28;9096;-69
2023/09/17 02:20:53;;;;;;;;;23.00;20.00;;;;;18.97;63.59;101396.88;5018557;28;8845;-69
2023/09/17 02:23:19;;;;;;;;;27.67;24.00;;;;;18.96;63.20;101397.13;5038378;28;9139;-68
2023/09/17 02:25:46;;;;;;;;;18.67;18.00;;;;;18.96;63.29;101397.13;5028375;28;9183;-69
2023/09/17 02:28:13;;;;;;;;;15.00;14.33;;;;;18.96;63.45;101397.13;5015183;28;9078;-69
2023/09/17 02:30:40;;;;;;;;;15.33;13.67;;;;;18.94;63.63;101388.31;5031088;28;8944;-69
2023/09/17 02:33:10;;;;;;;;;19.33;17.33;;;;;18.98;63.50;101386.78;5029766;28;8994;-70
2023/09/17 02:35:37;;;;;;;;;22.33;19.67;;;;;18.99;63.22;101391.16;5031723;28;8942;-69
2023/09/17 02:38:04;;;;;;;;;22.67;21.33;;;;;18.97;62.60;101391.41;5015063;28;9113;-69
2023/09/17 02:40:31;;;;;;;;;20.33;19.33;;;;;18.95;62.60;101388.06;5018755;28;9091;-69
2023/09/17 02:42:57;;;;;;;;;25.67;22.67;;;;;18.92;61.20;101384.97;4999045;28;11433;-69
2023/09/17 02:45:24;;;;;;;;;25.33;25.00;;;;;18.88;61.33;101386.53;5032136;28;9178;-69
2023/09/17 02:47:51;;;;;;;;;23.33;20.67;;;;;18.85;61.75;101389.75;5029666;28;9140;-69
2023/09/17 02:50:19;;;;;;;;;17.00;16.67;;;;;18.87;62.32;101376.69;5011625;28;9232;-70
2023/09/17 02:52:46;;;;;;;;;23.33;21.33;;;;;18.87;62.68;101382.13;5036673;28;8993;-69
2023/09/17 02:55:12;;;;;;;;;26.33;22.00;;;;;18.90;62.63;101387.13;5032880;28;9133;-69
2023/09/17 02:57:40;;;;;;;;;18.00;17.00;;;;;18.90;62.95;101387.13;5031459;28;9191;-69
2023/09/17 03:00:10;;;;;;;;;22.67;20.67;;;;;18.92;63.08;101387.72;5006871;28;8998;-69
2023/09/17 03:02:40;;;;;;;;;23.67;21.67;;;;;18.92;63.07;101390.44;5023605;28;9079;-70
2023/09/17 03:05:10;;;;;;;;;28.33;24.00;;;;;18.93;62.86;101386.66;5030500;28;9154;-69
2023/09/17 03:07:37;;;;;;;;;23.00;21.67;;;;;18.91;63.27;101394.25;5017354;28;9070;-70
2023/09/17 03:10:10;;;;;;;;;18.67;18.00;;;;;18.87;63.32;101387.59;5006700;28;9905;-69
2023/09/17 03:12:41;;;;;;;;;24.00;21.33;;;;;18.90;63.32;101378.94;5014994;28;8983;-69
2023/09/17 03:15:08;;;;;;;;;17.67;17.33;;;;;18.90;63.46;101396.16;5010615;28;9063;-68
2023/09/17 03:17:37;;;;;;;;;21.00;19.33;;;;;18.90;63.35;101392.59;5003984;28;9125;-69
2023/09/17 03:20:22;;;;;;;;;26.33;21.67;;;;;18.87;62.98;101393.88;5031897;28;9218;-69
2023/09/17 03:22:49;;;;;;;;;26.00;24.33;;;;;18.82;62.33;101392.94;5032380;28;9243;-70
2023/09/17 03:25:16;;;;;;;;;22.33;19.67;;;;;18.81;62.24;101394.84;5016164;28;9304;-69
2023/09/17 03:27:45;;;;;;;;;27.00;24.67;;;;;18.79;62.61;101386.03;5012620;28;9223;-69
2023/09/17 03:30:12;;;;;;;;;36.00;29.00;;;;;18.71;63.78;101394.56;5030826;28;9317;-70
2023/09/17 03:32:40;;;;;;;;;22.67;21.67;;;;;18.73;64.16;101393.28;5002953;28;9418;-69
2023/09/17 03:35:25;;;;;;;;;25.67;24.33;;;;;18.65;64.68;101399.06;4994832;28;9319;-68
2023/09/17 03:37:51;;;;;;;;;24.00;23.33;;;;;18.57;65.42;101390.38;5016937;28;9978;-70
2023/09/17 03:40:19;;;;;;;;;28.50;25.00;;;;;18.55;65.56;101390.59;5014103;28;9309;-70
2023/09/17 03:42:46;;;;;;;;;30.67;27.67;;;;;18.49;65.72;101397.00;5013949;28;9522;-70
2023/09/17 03:45:13;;;;;;;;;31.00;27.75;;;;;18.41;66.40;101398.16;5014074;28;9311;-69
2023/09/17 03:47:43;;;;;;;;;27.25;24.00;;;;;18.45;66.64;101395.81;5018666;28;9407;-70
2023/09/17 03:50:13;;;;;;;;;23.33;19.00;;;;;18.50;66.92;101385.03;5012769;28;9495;-70
2023/09/17 03:52:43;;;;;;;;;18.00;16.33;;;;;18.49;67.26;101380.63;5029716;28;9227;-70
2023/09/17 03:55:10;;;;;;;;;29.50;27.50;;;;;18.40;67.85;101377.44;5029458;28;9448;-70
2023/09/17 03:57:38;;;;;;;;;23.67;22.67;;;;;18.40;68.15;101382.88;5007137;28;9606;-69
2023/09/17 04:00:10;;;;;;;;;24.00;22.00;;;;;18.41;68.66;101379.06;5012979;28;9409;-69
2023/09/17 04:02:41;;;;;;;;;28.67;25.33;;;;;18.46;68.41;101379.19;5007844;28;9396;-69
2023/09/17 04:05:11;;;;;;;;;26.67;23.67;;;;;18.37;68.99;101368.88;5029130;28;9311;-70
2023/09/17 04:07:40;;;;;;;;;28.00;26.00;;;;;18.37;69.01;101374.31;5009611;28;9237;-68
2023/09/17 04:10:09;;;;;;;;;21.00;19.67;;;;;18.37;69.53;101379.78;5031070;28;9541;-70
2023/09/17 04:12:37;;;;;;;;;30.00;29.33;;;;;18.37;69.75;101371.59;5013667;28;9335;-70
2023/09/17 04:15:08;;;;;;;;;25.00;24.33;;;;;18.40;69.71;101376.59;5013462;28;9227;-69
2023/09/17 04:17:35;;;;;;;;;27.00;26.75;;;;;18.40;69.53;101366.53;5010276;28;9239;-70
2023/09/17 04:20:03;;;;;;;;;36.75;29.50;;;;;18.33;69.44;101364.94;5030044;28;10231;-69
2023/09/17 04:22:32;;;;;;;;;26.33;23.33;;;;;18.28;69.97;101365.66;5029713;28;9563;-70
2023/09/17 04:24:58;;;;;;;;;25.25;23.00;;;;;18.27;70.04;101367.56;5013490;28;9293;-70
2023/09/17 04:27:26;;;;;;;;;20.00;20.00;;;;;18.32;70.06;101363.31;5009950;28;9372;-70
2023/09/17 04:29:53;;;;;;;;;22.67;21.00;;;;;18.30;70.10;101366.25;5029951;28;9256;-70
2023/09/17 04:32:19;;;;;;;;;26.50;26.00;;;;;18.27;69.78;101353.94;5030789;28;9277;-70
2023/09/17 04:34:46;;;;;;;;;36.00;31.25;;;;;18.25;70.02;101355.22;5030798;28;10281;-70
2023/09/17 04:37:16;;;;;;;;;39.25;34.00;;;;;18.16;70.16;101343.81;4999749;28;9625;-69
2023/09/17 04:39:43;;;;;;;;;28.67;25.33;;;;;18.14;70.43;101348.66;5029967;28;9830;-69
2023/09/17 04:42:09;;;;;;;;;28.75;28.25;;;;;18.13;70.82;101344.28;4996700;28;9489;-70
2023/09/17 04:44:36;;;;;;;;;30.50;27.00;;;;;18.12;70.60;101349.97;5030555;28;9465;-70
2023/09/17 04:47:03;;;;;;;;;30.25;27.75;;;;;18.13;71.14;101349.72;4999713;28;9446;-70
2023/09/17 04:49:31;;;;;;;;;28.75;27.50;;;;;18.21;71.21;101354.00;5034539;28;9454;-70
2023/09/17 04:51:58;;;;;;;;;28.67;26.33;;;;;18.22;71.55;101352.94;5013481;28;9501;-70
2023/09/17 04:54:24;;;;;;;;;25.00;22.33;;;;;18.26;71.68;101354.13;5012768;28;9250;-70
2023/09/17 04:56:51;;;;;;;;;32.25;31.75;;;;;18.24;71.68;101351.66;5027722;28;9498;-69
2023/09/17 04:59:17;;;;;;;;;28.67;26.00;;;;;18.25;71.89;101350.59;5012427;28;9475;-70
2023/09/17 05:01:44;;;;;;;;;31.50;30.50;;;;;18.24;71.84;101348.94;5012659;28;9460;-70
2023/09/17 05:04:11;;;;;;;;;26.75;26.00;;;;;18.29;71.72;101354.50;4996478;28;9522;-69
2023/09/17 05:06:38;;;;;;;;;36.00;30.00;;;;;18.27;71.49;101348.47;5026543;28;9543;-69
2023/09/17 05:09:05;;;;;;;;;29.33;29.33;;;;;18.26;71.49;101354.97;5004382;28;9526;-70
2023/09/17 05:11:32;;;;;;;;;28.00;26.67;;;;;18.25;71.47;101347.88;4990740;28;10159;-69
2023/09/17 05:14:00;;;;;;;;;20.00;20.00;;;;;18.28;71.39;101352.03;5011319;28;9232;-70
2023/09/17 05:16:27;;;;;;;;;24.67;23.00;;;;;18.32;71.52;101350.50;5012854;28;9230;-69
2023/09/17 05:18:55;;;;;;;;;23.67;20.00;;;;;18.38;71.50;101348.72;5012712;28;9431;-70
2023/09/17 05:21:23;;;;;;;;;27.00;25.00;;;;;18.38;70.90;101355.00;5009505;28;9246;-69
2023/09/17 05:23:50;;;;;;;;;29.67;24.67;;;;;18.33;70.76;101343.16;5014221;28;9480;-69
2023/09/17 05:26:17;;;;;;;;;33.75;29.75;;;;;18.28;70.76;101344.69;5010079;28;9448;-69
2023/09/17 05:28:44;;;;;;;;;28.25;28.00;;;;;18.21;70.64;101343.94;5029266;28;9531;-69
2023/09/17 05:31:11;;;;;;;;;28.67;26.33;;;;;18.21;70.52;101343.94;5007741;28;9468;-70
2023/09/17 05:33:37;;;;;;;;;31.50;29.75;;;;;18.19;70.88;101353.41;5026271;28;9445;-70
2023/09/17 05:36:04;;;;;;;;;31.00;29.75;;;;;18.19;70.70;101350.69;5012303;28;9520;-69
2023/09/17 05:38:30;;;;;;;;;34.75;32.25;;;;;18.20;70.64;101349.63;5012330;28;9472;-69
2023/09/17 05:40:58;;;;;;;;;28.00;26.33;;;;;18.17;70.83;101350.94;5012280;28;9396;-70
2023/09/17 05:43:25;;;;;;;;;35.00;29.25;;;;;18.19;70.93;101358.84;5024120;28;9446;-69
2023/09/17 05:45:56;;;;;;;;;30.00;29.00;;;;;18.20;71.21;101355.09;5019379;28;9378;-69
2023/09/17 05:48:29;;;;;;;;;25.00;25.00;;;;;18.23;70.98;101358.19;5006148;28;9461;-68
2023/09/17 05:50:55;;;;;;;;;28.33;24.00;;;;;18.26;70.89;101356.88;5028472;28;9785;-69
2023/09/17 05:53:28;;;;;;;;;28.50;27.50;;;;;18.29;70.58;101359.97;5013722;28;9321;-70
2023/09/17 05:55:54;;;;;;;;;26.33;22.67;;;;;18.29;70.02;101353.69;5029949;28;9374;-69
2023/09/17 05:58:21;;;;;;;;;29.50;27.50;;;;;18.29;69.85;101356.41;4992107;28;9270;-70
2023/09/17 06:00:48;;;;;;;;;30.67;28.00;;;;;18.29;69.17;101353.69;4992764;28;9466;-69
2023/09/17 06:03:15;;;;;;;;;30.75;28.75;;;;;18.25;69.17;101345.13;5006574;28;9386;-69
2023/09/17 06:05:41;;;;;;;;;24.33;24.33;;;;;18.24;69.13;101348.94;5028723;28;9449;-70
2023/09/17 06:08:09;;;;;;;;;34.25;30.00;;;;;18.21;69.16;101354.84;4995667;28;9274;-69
2023/09/17 06:10:35;;;;;;;;;26.25;25.00;;;;;18.24;69.33;101351.66;5012396;28;9536;-69
2023/09/17 06:13:03;;;;;;;;;24.33;23.33;;;;;18.22;69.65;101350.22;5017347;28;10212;-69
2023/09/17 06:15:29;;;;;;;;;32.75;30.00;;;;;18.18;69.79;101346.31;5027292;28;10084;-69
2023/09/17 06:17:56;;;;;;;;;26.67;26.33;;;;;18.17;70.39;101350.94;5027375;28;9822;-69
2023/09/17 06:20:23;;;;;;;;;25.25;25.00;;;;;18.14;70.40;101343.19;5009902;28;9389;-69
2023/09/17 06:22:49;;;;;;;;;23.67;21.00;;;;;18.12;70.87;101339.91;5012830;28;9369;-69
2023/09/17 06:25:16;;;;;;;;;26.50;24.00;;;;;18.04;70.89;101345.69;5014103;28;9320;-70
2023/09/17 06:27:43;;;;;;;;;25.33;24.33;;;;;17.98;70.70;101350.13;5029049;28;9391;-70
2023/09/17 06:30:10;;;;;;;;;30.50;27.50;;;;;17.96;70.55;101346.00;5029238;28;9451;-69
2023/09/17 06:32:36;;;;;;;;;28.25;27.00;;;;;17.99;70.40;101346.38;5008145;28;10100;-70
2023/09/17 06:35:03;;;;;;;;;27.00;26.67;;;;;17.98;70.16;101341.97;5025771;28;9601;-69
2023/09/17 06:37:30;;;;;;;;;25.00;24.00;;;;;17.99;70.39;101340.94;5014330;28;9449;-69
2023/09/17 06:39:57;;;;;;;;;32.25;32.00;;;;;17.96;70.77;101337.81;4995963;28;9402;-70
2023/09/17 06:42:24;;;;;;;;;25.00;24.00;;;;;17.89;71.62;101340.63;5022596;28;9617;-69
2023/09/17 06:44:50;;;;;;;;;31.00;27.75;;;;;17.84;71.21;101345.13;5030892;28;9351;-70
2023/09/17 06:47:17;;;;;;;;;32.50;29.50;;;;;17.69;71.97;101351.75;5005232;28;9812;-69
2023/09/17 06:49:43;;;;;;;;;26.50;26.25;;;;;17.74;72.63;101349.22;5032298;28;9760;-70
2023/09/17 06:52:10;;;;;;;;;32.75;28.75;;;;;17.75;72.50;101350.06;5031669;28;9608;-69
2023/09/17 06:54:37;;;;;;;;;28.00;22.75;;;;;17.67;73.35;101348.44;5032777;28;9558;-69
2023/09/17 06:57:04;;;;;;;;;29.00;29.00;;;;;17.64;73.62;101351.63;5009140;28;9448;-71
2023/09/17 06:59:30;;;;;;;;;31.75;30.75;;;;;17.65;74.00;101357.88;5025757;28;9698;-70
2023/09/17 07:01:57;;;;;;;;;37.50;28.25;;;;;17.67;74.30;101362.06;5030718;28;9534;-70
2023/09/17 07:04:24;;;;;;;;;30.75;28.75;;;;;17.64;74.53;101362.50;5028913;28;9542;-70
2023/09/17 07:06:50;;;;;;;;;30.50;28.00;;;;;17.60;75.45;101366.75;5025824;28;9455;-70
2023/09/17 07:09:17;;;;;;;;;27.25;25.50;;;;;17.58;75.58;101366.13;5018543;28;9533;-69
2023/09/17 07:11:44;;;;;;;;;29.25;24.50;;;;;17.55;75.67;101366.59;5024986;28;9622;-70
2023/09/17 07:14:10;;;;;;;;;24.25;22.75;;;;;17.41;75.45;101359.63;5026587;28;9455;-69
2023/09/17 07:16:39;;;;;;;;;28.00;28.00;;;;;17.30;76.02;101356.63;5034921;28;9520;-69
2023/09/17 07:19:06;;;;;;;;;21.00;20.25;;;;;17.29;76.35;101362.28;5026635;28;10542;-70
2023/09/17 07:21:32;;;;;;;;;21.00;19.00;;;;;17.29;76.87;101362.28;5031395;28;10153;-69
2023/09/17 07:23:59;;;;;;;;;19.00;18.00;;;;;17.27;77.02;101359.78;5028970;28;9301;-70
2023/09/17 07:26:25;;;;;;;;;23.67;23.33;;;;;17.25;77.19;101361.06;5004609;28;9321;-68
2023/09/17 07:28:52;;;;;;;;;26.00;22.00;;;;;17.11;76.30;101359.56;5029635;28;9412;-70
2023/09/17 07:31:19;;;;;;;;;19.00;19.00;;;;;17.04;76.97;101359.63;5025949;28;9421;-69
2023/09/17 07:33:45;;;;;;;;;23.75;22.75;;;;;16.99;76.79;101376.59;5031718;28;9485;-70
2023/09/17 07:36:13;;;;;;;;;19.75;17.75;;;;;16.97;77.22;101367.81;5029965;28;9484;-70
2023/09/17 07:38:40;;;;;;;;;21.00;21.00;;;;;17.02;77.40;101367.19;5029024;28;9657;-70
2023/09/17 07:41:06;;;;;;;;;29.75;25.25;;;;;17.04;77.39;101362.34;5031271;28;10250;-70
2023/09/17 07:43:33;;;;;;;;;23.25;22.00;;;;;17.07;77.32;101359.16;5031823;28;9599;-68
2023/09/17 07:46:00;;;;;;;;;18.50;17.50;;;;;17.04;76.86;101354.19;5029112;28;11979;-69
2023/09/17 07:48:29;;;;;;;;;18.33;17.00;;;;;16.95;77.50;101348.19;5004067;28;9437;-70
2023/09/17 07:50:59;;;;;;;;;17.00;14.00;;;;;16.89;77.63;101353.69;5026103;28;9499;-69
2023/09/17 07:53:26;;;;;;;;;17.67;15.33;;;;;16.92;77.97;101350.53;5029212;28;9468;-69
2023/09/17 07:55:53;;;;;;;;;13.33;13.33;;;;;16.96;78.04;101349.03;5025468;28;9412;-68
2023/09/17 07:58:20;;;;;;;;;16.33;16.00;;;;;16.88;77.74;101352.84;4997224;28;9400;-68
2023/09/17 08:00:46;;;;;;;;;16.00;14.00;;;;;16.82;77.87;101359.22;5030605;28;9541;-68
2023/09/17 08:03:13;;;;;;;;;13.00;11.33;;;;;16.73;78.15;101355.94;5030581;28;9390;-69
2023/09/17 08:05:43;;;;;;;;;17.00;14.00;;;;;16.75;78.73;101353.81;5026704;28;9235;-68
2023/09/17 08:08:10;;;;;;;;;16.00;16.00;;;;;16.79;78.73;101349.59;5028187;28;9249;-68
2023/09/17 08:10:37;;;;;;;;;12.00;12.00;;;;;16.87;78.83;101348.47;5027266;28;9243;-69
2023/09/17 08:13:04;;;;;;;;;19.00;19.00;;;;;16.91;78.78;101357.03;5024476;28;9258;-69
2023/09/17 08:15:31;;;;;;;;;17.67;16.00;;;;;16.94;79.49;101348.44;5023111;28;9378;-68
2023/09/17 08:17:57;;;;;;;;;19.75;18.00;;;;;16.95;79.78;101350.91;5021187;28;9387;-69
2023/09/17 08:20:25;;;;;;;;;25.00;21.67;;;;;16.96;79.63;101347.13;5026948;28;9434;-69
2023/09/17 08:22:52;;;;;;;;;21.00;21.00;;;;;16.98;79.90;101347.75;5015116;28;9477;-69
2023/09/17 08:25:19;;;;;;;;;24.00;18.67;;;;;17.02;80.47;101351.69;5026227;28;10316;-69
2023/09/17 08:27:47;;;;;;;;;18.33;17.33;;;;;17.07;80.70;101352.91;5025228;28;9460;-67
2023/09/17 08:30:15;;;;;;;;;25.00;20.75;;;;;17.07;81.08;101351.00;5025918;28;9379;-69
2023/09/17 08:32:43;;;;;;;;;20.00;18.50;;;;;17.11;82.05;101349.50;5028929;28;9707;-69
2023/09/17 08:35:14;;;;;;;;;20.00;20.00;;;;;17.17;82.04;101348.59;5027836;28;9526;-68
2023/09/17 08:37:42;;;;;;;;;20.33;18.67;;;;;17.22;82.16;101343.31;5023831;28;9436;-69
2023/09/17 08:40:13;;;;;;;;;26.00;21.50;;;;;17.22;81.99;101350.66;5034971;28;9454;-68
2023/09/17 08:42:43;;;;;;;;;18.00;17.25;;;;;17.22;82.17;101350.66;5027295;28;9458;-69
2023/09/17 08:45:11;;;;;;;;;22.50;22.50;;;;;17.21;82.30;101354.41;5005503;28;9533;-69
2023/09/17 08:47:38;;;;;;;;;21.00;21.00;;;;;17.23;82.46;101350.41;5027558;28;9658;-68
2023/09/17 08:50:10;;;;;;;;;25.75;25.00;;;;;17.21;82.46;101347.06;5027980;28;9747;-68
2023/09/17 08:52:42;;;;;;;;;22.00;20.00;;;;;17.18;82.57;101353.00;5028613;28;9662;-69
2023/09/17 08:55:11;;;;;;;;;20.75;18.00;;;;;17.03;82.50;101349.78;5027989;28;9450;-68
2023/09/17 08:57:42;;;;;;;;;22.33;19.00;;;;;16.90;83.09;101341.78;5028034;28;9479;-69
2023/09/17 09:00:10;;;;;;;;;25.00;25.00;;;;;16.91;83.13;101362.47;5025443;28;9491;-69
2023/09/17 09:02:48;;;;;;;;;24.33;18.67;;;;;16.91;83.14;101357.03;5020930;28;9528;-69
2023/09/17 09:05:19;;;;;;;;;27.50;25.00;;;;;16.87;83.14;101358.53;5026662;28;10289;-68
2023/09/17 09:07:47;;;;;;;;;28.25;26.50;;;;;16.89;83.27;101367.28;5027282;28;9695;-68
2023/09/17 09:10:14;;;;;;;;;31.25;26.50;;;;;16.88;83.67;101362.91;5024399;28;9694;-69
2023/09/17 09:12:42;;;;;;;;;27.25;26.75;;;;;16.88;83.37;101363.72;5012845;28;9820;-69
2023/09/17 09:15:12;;;;;;;;;28.50;24.50;;;;;16.89;83.42;101362.66;5008964;28;9512;-68
2023/09/17 09:17:39;;;;;;;;;30.25;29.00;;;;;16.86;83.12;101359.59;5028655;28;9414;-69
2023/09/17 09:20:09;;;;;;;;;36.25;27.50;;;;;16.80;83.11;101351.25;5010362;28;9654;-68
2023/09/17 09:22:40;;;;;;;;;24.50;23.00;;;;;16.80;83.21;101351.25;5024365;28;10405;-68
2023/09/17 09:25:08;;;;;;;;;25.25;23.75;;;;;16.83;83.77;101346.44;5021528;28;9506;-69
2023/09/17 09:27:37;;;;;;;;;30.25;26.25;;;;;16.85;83.20;101339.69;5026040;28;9933;-69
2023/09/17 09:30:09;;;;;;;;;28.25;27.00;;;;;16.89;83.52;101331.94;5024844;28;9774;-68
2023/09/17 09:32:36;;;;;;;;;24.50;23.50;;;;;16.90;83.53;101334.44;5019201;28;9739;-67
2023/09/17 09:35:05;;;;;;;;;25.50;25.50;;;;;16.98;84.17;101338.78;5025722;28;9725;-68
2023/09/17 09:37:34;;;;;;;;;27.50;25.75;;;;;16.98;82.80;101336.06;5028264;28;9528;-70
2023/09/17 09:40:02;;;;;;;;;32.00;29.25;;;;;16.94;83.34;101341.09;5027652;28;9624;-69
2023/09/17 09:42:28;;;;;;;;;25.25;23.75;;;;;17.00;83.78;101344.78;5029395;28;9694;-68
2023/09/17 09:44:57;;;;;;;;;27.00;26.75;;;;;17.03;83.39;101344.34;5029524;28;9484;-70
2023/09/17 09:47:23;;;;;;;;;19.50;19.00;;;;;17.10;83.74;101334.25;5029256;28;9759;-69
2023/09/17 09:49:50;;;;;;;;;27.75;25.75;;;;;17.19;83.40;101327.44;5029815;28;9602;-69
2023/09/17 09:52:18;;;;;;;;;25.75;22.50;;;;;17.28;83.65;101326.06;5011778;28;9710;-69
2023/09/17 09:54:46;;;;;;;;;34.25;31.25;;;;;17.33;83.36;101319.13;5015493;28;9620;-69
2023/09/17 09:57:14;;;;;;;;;26.50;25.25;;;;;17.37;82.77;101317.59;5008263;28;9613;-69
2023/09/17 09:59:43;;;;;;;;;26.00;22.75;;;;;17.35;82.93;101320.56;5021266;28;9573;-69
2023/09/17 10:02:13;;;;;;;;;21.50;21.50;;;;;17.34;83.24;101307.16;5029456;28;9386;-69
2023/09/17 10:04:40;;;;;;;;;21.00;21.00;;;;;17.36;83.14;101311.34;5029540;28;9457;-69
2023/09/17 10:07:07;;;;;;;;;30.00;29.25;;;;;17.32;83.39;101306.59;5029034;28;9248;-68
2023/09/17 10:09:35;;;;;;;;;29.33;24.00;;;;;17.32;83.38;101314.75;5029368;28;9475;-69
2023/09/17 10:12:03;;;;;;;;;22.75;22.75;;;;;17.34;83.60;101299.00;5025331;28;9359;-69
2023/09/17 10:14:36;;;;;;;;;30.50;25.00;;;;;17.38;83.13;101292.06;5011642;28;10155;-69
2023/09/17 10:17:05;;;;;;;;;33.25;29.50;;;;;17.38;83.30;101295.63;5012966;28;9540;-69
2023/09/17 10:19:34;;;;;;;;;24.75;21.00;;;;;17.41;82.95;101302.50;5013051;28;10595;-68
2023/09/17 10:22:03;;;;;;;;;22.33;17.67;;;;;17.44;82.20;101294.69;5013124;28;9391;-69
2023/09/17 10:24:31;;;;;;;;;19.33;15.67;;;;;17.43;82.24;101293.03;5013135;28;9328;-69
2023/09/17 10:26:59;;;;;;;;;17.33;16.67;;;;;17.49;82.38;101281.22;5012865;28;9155;-68
2023/09/17 10:29:26;;;;;;;;;21.00;21.00;;;;;17.52;82.15;101266.34;5014230;28;9333;-68
2023/09/17 10:31:56;;;;;;;;;20.67;18.00;;;;;17.54;82.30;101264.19;5013122;28;9774;-72
2023/09/17 10:34:26;;;;;;;;;23.75;21.25;;;;;17.55;81.96;101264.00;5011566;28;9278;-69
2023/09/17 10:36:54;;;;;;;;;21.00;21.00;;;;;17.56;82.17;101262.09;5012666;28;9552;-68
2023/09/17 10:39:25;;;;;;;;;26.00;22.75;;;;;17.59;82.24;101244.47;5012897;28;9230;-69
2023/09/17 10:41:52;;;;;;;;;26.00;23.25;;;;;17.55;82.46;101250.38;5012824;28;9456;-70
2023/09/17 10:44:20;;;;;;;;;21.00;20.33;;;;;17.56;82.99;101248.47;5012548;28;9541;-69
2023/09/17 10:46:48;;;;;;;;;20.67;20.67;;;;;17.54;83.11;101267.78;5012329;28;9380;-69
2023/09/17 10:49:17;;;;;;;;;18.00;18.00;;;;;17.55;83.11;101265.88;5012418;28;9375;-70
2023/09/17 10:51:46;;;;;;;;;19.00;17.33;;;;;17.57;82.73;101254.75;5012733;28;9110;-70
2023/09/17 10:54:13;;;;;;;;;17.33;16.67;;;;;17.53;82.49;101254.38;5012875;28;10076;-71
2023/09/17 10:56:42;;;;;;;;;16.00;15.33;;;;;17.51;82.17;101254.63;5012708;28;9296;-69
2023/09/17 10:59:13;;;;;;;;;19.33;18.67;;;;;17.54;82.34;101246.00;5012575;28;9260;-69
2023/09/17 11:01:43;;;;;;;;;12.00;12.00;;;;;17.59;81.58;101241.75;5013732;28;9797;-69
2023/09/17 11:04:15;;;;;;;;;16.67;14.33;;;;;17.62;81.40;101238.56;4995032;28;9157;-69
2023/09/17 11:06:44;;;;;;;;;14.00;13.67;;;;;17.64;81.09;101242.72;5012145;28;9149;-69
2023/09/17 11:09:11;;;;;;;;;13.00;12.33;;;;;17.67;81.22;101242.25;5012488;28;9264;-69
2023/09/17 11:11:38;;;;;;;;;13.00;12.67;;;;;17.71;81.15;101251.63;5012484;28;9065;-70
2023/09/17 11:14:04;;;;;;;;;16.00;14.67;;;;;17.77;80.98;101258.88;4994783;28;9838;-68
2023/09/17 11:16:34;;;;;;;;;11.33;11.33;;;;;17.76;80.45;101257.22;5017626;28;9138;-69
2023/09/17 11:19:09;;;;;;;;;12.67;12.67;;;;;17.75;80.32;101249.31;5032480;28;8998;-70
2023/09/17 11:22:07;;;;;;;;;16.67;16.67;;;;;17.76;80.46;101249.06;5031912;28;8969;-69